createdAt,value
2019-04-26T00:00:27.290Z,0.00
2019-04-26T00:01:27.282Z,0.00
2019-04-26T00:02:27.276Z,0.00
2019-04-26T00:03:27.289Z,0.00
2019-04-26T00:04:27.246Z,0.00
2019-04-26T00:05:34.431Z,0.00
2019-04-26T00:06:28.235Z,0.00
2019-04-26T00:07:27.223Z,0.00
2019-04-26T00:08:27.231Z,0.00
2019-04-26T00:09:27.191Z,0.00
2019-04-26T00:10:27.185Z,0.00
2019-04-26T00:11:27.170Z,0.00
2019-04-26T00:12:27.161Z,0.00
2019-04-26T00:13:27.174Z,0.00
2019-04-26T00:14:27.139Z,0.00
2019-04-26T00:15:27.128Z,0.00
2019-04-26T00:16:27.115Z,0.00
2019-04-26T00:17:27.115Z,0.00
2019-04-26T00:18:27.123Z,0.00
2019-04-26T00:19:27.090Z,0.00
2019-04-26T00:20:27.076Z,0.00
2019-04-26T00:21:27.058Z,0.00
2019-04-26T00:22:27.050Z,0.00
2019-04-26T00:23:27.067Z,0.00
2019-04-26T00:24:28.453Z,0.00
2019-04-26T00:25:27.020Z,0.00
2019-04-26T00:26:27.012Z,0.00
2019-04-26T00:27:26.999Z,0.00
2019-04-26T00:28:27.014Z,0.00
2019-04-26T00:29:26.979Z,0.00
2019-04-26T00:30:26.981Z,0.00
2019-04-26T00:31:26.959Z,0.00
2019-04-26T00:32:26.952Z,0.00
2019-04-26T00:33:26.964Z,0.00
2019-04-26T00:34:26.928Z,0.00
2019-04-26T00:35:26.912Z,0.00
2019-04-26T00:36:26.905Z,0.00
2019-04-26T00:37:26.913Z,0.00
2019-04-26T00:38:26.935Z,0.00
2019-04-26T00:39:26.872Z,0.00
2019-04-26T00:40:26.858Z,0.00
2019-04-26T00:41:26.856Z,0.00
2019-04-26T00:42:26.842Z,0.00
2019-04-26T00:43:26.830Z,0.00
2019-04-26T00:44:26.847Z,0.00
2019-04-26T00:45:26.807Z,0.00
2019-04-26T00:46:26.813Z,0.00
2019-04-26T00:47:26.783Z,0.00
2019-04-26T00:48:26.777Z,0.00
2019-04-26T00:49:26.803Z,0.00
2019-04-26T00:50:26.749Z,0.00
2019-04-26T00:51:26.742Z,0.00
2019-04-26T00:52:26.736Z,0.00
2019-04-26T00:53:26.730Z,0.00
2019-04-26T00:54:26.741Z,0.00
2019-04-26T00:55:26.738Z,0.00
2019-04-26T00:56:26.694Z,0.00
2019-04-26T00:57:26.679Z,0.00
2019-04-26T00:58:26.669Z,0.00
2019-04-26T00:59:26.684Z,0.00
2019-04-26T01:00:26.648Z,0.00
2019-04-26T01:01:26.638Z,0.00
2019-04-26T01:02:26.621Z,0.00
2019-04-26T01:03:26.619Z,0.00
2019-04-26T01:04:26.629Z,0.00
2019-04-26T01:05:26.592Z,0.00
2019-04-26T01:06:26.586Z,0.00
2019-04-26T01:07:26.576Z,0.00
2019-04-26T01:08:26.560Z,0.00
2019-04-26T01:09:26.579Z,0.00
2019-04-26T01:10:26.539Z,0.00
2019-04-26T01:11:26.527Z,0.00
2019-04-26T01:12:26.519Z,0.00
2019-04-26T01:13:26.515Z,0.00
2019-04-26T01:14:26.523Z,0.00
2019-04-26T01:15:26.664Z,0.00
2019-04-26T01:16:26.487Z,0.00
2019-04-26T01:17:26.805Z,0.00
2019-04-26T01:18:26.493Z,0.00
2019-04-26T01:19:26.593Z,0.00
2019-04-26T01:20:26.784Z,0.00
2019-04-26T01:21:26.902Z,0.00
2019-04-26T01:22:27.516Z,0.00
2019-04-26T01:23:27.283Z,0.00
2019-04-26T01:24:27.288Z,0.00
2019-04-26T01:25:27.381Z,0.00
2019-04-26T01:26:27.343Z,0.00
2019-04-26T01:27:26.360Z,0.00
2019-04-26T01:28:26.348Z,0.00
2019-04-26T01:29:26.367Z,0.00
2019-04-26T01:30:26.329Z,0.00
2019-04-26T01:31:26.319Z,0.00
2019-04-26T01:32:26.303Z,0.00
2019-04-26T01:33:26.301Z,0.00
2019-04-26T01:34:26.316Z,0.00
2019-04-26T01:35:26.316Z,0.00
2019-04-26T01:36:26.507Z,0.00
2019-04-26T01:37:26.718Z,0.00
2019-04-26T01:38:26.239Z,0.00
2019-04-26T01:39:26.258Z,0.00
2019-04-26T01:40:26.225Z,0.00
2019-04-26T01:41:26.207Z,0.00
2019-04-26T01:42:26.399Z,0.00
2019-04-26T01:43:26.429Z,0.00
2019-04-26T01:44:26.582Z,0.00
2019-04-26T01:45:26.166Z,0.00
2019-04-26T01:46:26.882Z,0.00
2019-04-26T01:47:26.280Z,0.00
2019-04-26T01:48:27.107Z,0.00
2019-04-26T01:49:26.244Z,0.00
2019-04-26T01:50:26.126Z,0.00
2019-04-26T01:51:26.606Z,0.00
2019-04-26T01:52:26.095Z,0.00
2019-04-26T01:53:26.646Z,0.00
2019-04-26T01:54:26.083Z,0.00
2019-04-26T01:55:26.986Z,0.00
2019-04-26T01:56:27.072Z,0.00
2019-04-26T01:57:27.246Z,0.00
2019-04-26T01:58:27.183Z,0.00
2019-04-26T01:59:26.050Z,0.00
2019-04-26T02:00:26.034Z,0.00
2019-04-26T02:01:25.996Z,0.00
2019-04-26T02:02:25.986Z,0.00
2019-04-26T02:03:25.982Z,0.00
2019-04-26T02:04:25.964Z,0.00
2019-04-26T02:05:25.997Z,0.00
2019-04-26T02:06:32.011Z,0.00
2019-04-26T02:07:26.935Z,0.00
2019-04-26T02:08:26.302Z,0.00
2019-04-26T02:09:26.373Z,0.00
2019-04-26T02:10:26.672Z,0.00
2019-04-26T02:11:26.711Z,0.00
2019-04-26T02:12:26.721Z,0.00
2019-04-26T02:13:26.821Z,0.00
2019-04-26T02:14:26.903Z,0.00
2019-04-26T02:15:27.083Z,0.00
2019-04-26T02:16:26.973Z,0.00
2019-04-26T02:17:25.827Z,0.00
2019-04-26T02:18:25.836Z,0.00
2019-04-26T02:19:25.823Z,0.00
2019-04-26T02:20:25.824Z,0.00
2019-04-26T02:21:26.377Z,0.00
2019-04-26T02:22:25.946Z,0.00
2019-04-26T02:23:26.391Z,0.00
2019-04-26T02:24:26.428Z,0.00
2019-04-26T02:25:26.048Z,0.00
2019-04-26T02:26:26.629Z,0.00
2019-04-26T02:27:26.235Z,0.00
2019-04-26T02:28:26.759Z,0.00
2019-04-26T02:29:26.844Z,0.00
2019-04-26T02:30:27.074Z,0.00
2019-04-26T02:31:27.291Z,0.00
2019-04-26T02:32:27.436Z,0.00
2019-04-26T02:33:27.458Z,0.00
2019-04-26T02:34:27.959Z,0.00
2019-04-26T02:35:27.083Z,0.00
2019-04-26T02:36:45.102Z,0.00
2019-04-26T02:37:26.948Z,0.00
2019-04-26T02:38:27.438Z,0.00
2019-04-26T02:39:26.311Z,0.00
2019-04-26T02:40:27.534Z,0.00
2019-04-26T02:41:27.468Z,0.00
2019-04-26T02:42:26.624Z,0.00
2019-04-26T02:43:26.434Z,0.00
2019-04-26T02:44:26.604Z,0.00
2019-04-26T02:45:28.306Z,0.00
2019-04-26T02:46:28.456Z,0.00
2019-04-26T02:47:26.691Z,0.00
2019-04-26T02:48:27.106Z,0.00
2019-04-26T02:49:27.474Z,0.00
2019-04-26T02:50:28.356Z,0.00
2019-04-26T02:51:25.492Z,0.00
2019-04-26T02:52:25.456Z,0.00
2019-04-26T02:53:25.441Z,0.00
2019-04-26T02:54:25.429Z,0.00
2019-04-26T02:55:25.427Z,0.00
2019-04-26T02:56:25.438Z,0.00
2019-04-26T02:57:25.399Z,0.00
2019-04-26T02:58:25.394Z,0.00
2019-04-26T02:59:25.379Z,0.00
2019-04-26T03:00:25.371Z,0.00
2019-04-26T03:01:25.379Z,0.00
2019-04-26T03:02:25.364Z,0.00
2019-04-26T03:03:25.330Z,0.00
2019-04-26T03:04:25.327Z,0.00
2019-04-26T03:05:25.310Z,0.00
2019-04-26T03:06:25.326Z,0.00
2019-04-26T03:07:25.305Z,0.00
2019-04-26T03:08:25.289Z,0.00
2019-04-26T03:09:25.272Z,0.00
2019-04-26T03:10:25.260Z,0.00
2019-04-26T03:11:25.278Z,0.00
2019-04-26T03:12:25.238Z,0.00
2019-04-26T03:13:25.244Z,0.00
2019-04-26T03:14:25.245Z,0.00
2019-04-26T03:15:25.221Z,0.00
2019-04-26T03:16:25.235Z,0.00
2019-04-26T03:17:25.195Z,0.00
2019-04-26T03:18:25.180Z,0.00
2019-04-26T03:19:25.173Z,0.00
2019-04-26T03:20:25.155Z,0.00
2019-04-26T03:21:25.186Z,0.00
2019-04-26T03:22:25.139Z,0.00
2019-04-26T03:23:41.033Z,0.00
2019-04-26T03:24:26.132Z,0.00
2019-04-26T03:25:25.110Z,0.00
2019-04-26T03:26:25.118Z,0.00
2019-04-26T03:27:25.079Z,0.00
2019-04-26T03:28:25.252Z,0.00
2019-04-26T03:29:25.092Z,0.00
2019-04-26T03:30:25.047Z,0.00
2019-04-26T03:31:25.084Z,0.00
2019-04-26T03:32:25.029Z,4.00
2019-04-26T03:33:25.186Z,4.00
2019-04-26T03:34:25.014Z,0.00
2019-04-26T03:35:25.009Z,4.00
2019-04-26T03:36:25.033Z,4.00
2019-04-26T03:37:24.994Z,4.00
2019-04-26T03:38:24.961Z,0.00
2019-04-26T03:39:24.955Z,4.00
2019-04-26T03:40:24.939Z,8.00
2019-04-26T03:41:24.962Z,4.00
2019-04-26T03:42:24.928Z,4.00
2019-04-26T03:43:24.914Z,8.00
2019-04-26T03:44:24.903Z,8.00
2019-04-26T03:45:24.919Z,8.00
2019-04-26T03:46:24.879Z,16.00
2019-04-26T03:47:24.871Z,16.00
2019-04-26T03:48:24.860Z,16.00
2019-04-26T03:49:24.852Z,16.00
2019-04-26T03:50:24.868Z,20.00
2019-04-26T03:51:24.822Z,24.00
2019-04-26T03:52:24.813Z,32.00
2019-04-26T03:53:24.804Z,36.00
2019-04-26T03:54:24.803Z,44.00
2019-04-26T03:55:24.811Z,52.00
2019-04-26T03:56:24.771Z,52.00
2019-04-26T03:57:24.770Z,52.00
2019-04-26T03:58:24.751Z,56.00
2019-04-26T03:59:24.745Z,68.00
2019-04-26T04:00:24.755Z,76.00
2019-04-26T04:01:24.718Z,92.00
2019-04-26T04:02:24.703Z,108.00
2019-04-26T04:03:26.829Z,120.00
2019-04-26T04:04:24.685Z,132.00
2019-04-26T04:05:24.828Z,140.00
2019-04-26T04:06:24.688Z,152.00
2019-04-26T04:07:36.737Z,180.00
2019-04-26T04:08:25.639Z,212.00
2019-04-26T04:09:24.630Z,248.00
2019-04-26T04:10:24.618Z,284.00
2019-04-26T04:11:24.746Z,320.00
2019-04-26T04:12:24.698Z,364.00
2019-04-26T04:13:24.591Z,404.00
2019-04-26T04:14:24.678Z,428.00
2019-04-26T04:15:24.570Z,436.00
2019-04-26T04:16:24.585Z,436.00
2019-04-26T04:17:24.562Z,428.00
2019-04-26T04:18:24.536Z,408.00
2019-04-26T04:19:24.537Z,388.00
2019-04-26T04:20:24.515Z,380.00
2019-04-26T04:21:24.533Z,392.00
2019-04-26T04:22:24.495Z,436.00
2019-04-26T04:23:24.485Z,532.00
2019-04-26T04:24:24.478Z,628.00
2019-04-26T04:25:24.480Z,708.00
2019-04-26T04:26:24.528Z,772.00
2019-04-26T04:27:24.439Z,848.00
2019-04-26T04:28:24.428Z,936.00
2019-04-26T04:29:39.017Z,964.00
2019-04-26T04:30:25.405Z,904.00
2019-04-26T04:31:24.426Z,872.00
2019-04-26T04:32:24.382Z,940.00
2019-04-26T04:33:24.376Z,1088.00
2019-04-26T04:34:24.368Z,1216.00
2019-04-26T04:35:24.362Z,1288.00
2019-04-26T04:36:24.377Z,1268.00
2019-04-26T04:37:24.346Z,1192.00
2019-04-26T04:38:24.338Z,1148.00
2019-04-26T04:39:24.310Z,1168.00
2019-04-26T04:40:24.301Z,1216.00
2019-04-26T04:41:24.315Z,1244.00
2019-04-26T04:42:24.282Z,1268.00
2019-04-26T04:43:24.417Z,1292.00
2019-04-26T04:44:24.259Z,1316.00
2019-04-26T04:45:24.247Z,1344.00
2019-04-26T04:46:24.429Z,1384.00
2019-04-26T04:47:25.608Z,1524.00
2019-04-26T04:48:24.211Z,1776.00
2019-04-26T04:49:24.204Z,2044.00
2019-04-26T04:50:24.192Z,2288.00
2019-04-26T04:51:24.217Z,2468.00
2019-04-26T04:52:24.173Z,2696.00
2019-04-26T04:53:24.176Z,2968.00
2019-04-26T04:54:24.147Z,3228.00
2019-04-26T04:55:24.142Z,3436.00
2019-04-26T04:56:24.164Z,3548.00
2019-04-26T04:57:24.120Z,3528.00
2019-04-26T04:58:24.108Z,3416.00
2019-04-26T04:59:24.099Z,3280.00
2019-04-26T05:00:24.084Z,3280.00
2019-04-26T05:01:24.103Z,3448.00
2019-04-26T05:02:24.071Z,3636.00
2019-04-26T05:03:24.054Z,3788.00
2019-04-26T05:04:24.047Z,3896.00
2019-04-26T05:05:24.037Z,3972.00
2019-04-26T05:06:24.046Z,4032.00
2019-04-26T05:07:24.007Z,3964.00
2019-04-26T05:08:24.005Z,3756.00
2019-04-26T05:09:23.992Z,3344.00
2019-04-26T05:10:23.982Z,2916.00
2019-04-26T05:11:24.036Z,2688.00
2019-04-26T05:12:23.958Z,2692.00
2019-04-26T05:13:23.948Z,2924.00
2019-04-26T05:14:23.939Z,3300.00
2019-04-26T05:15:23.930Z,3632.00
2019-04-26T05:16:23.957Z,3756.00
2019-04-26T05:17:23.902Z,3648.00
2019-04-26T05:18:23.892Z,3504.00
2019-04-26T05:19:23.882Z,3452.00
2019-04-26T05:20:23.874Z,3460.00
2019-04-26T05:21:23.891Z,3420.00
2019-04-26T05:22:23.847Z,3372.00
2019-04-26T05:23:23.840Z,3404.00
2019-04-26T05:24:23.842Z,3552.00
2019-04-26T05:25:23.816Z,3716.00
2019-04-26T05:26:23.832Z,3716.00
2019-04-26T05:27:23.794Z,3556.00
2019-04-26T05:28:23.795Z,3312.00
2019-04-26T05:29:23.775Z,3116.00
2019-04-26T05:30:23.771Z,3084.00
2019-04-26T05:31:23.784Z,3216.00
2019-04-26T05:32:23.743Z,3468.00
2019-04-26T05:33:23.732Z,3792.00
2019-04-26T05:34:23.726Z,4136.00
2019-04-26T05:35:23.706Z,4464.00
2019-04-26T05:36:23.723Z,4692.00
2019-04-26T05:37:23.689Z,4756.00
2019-04-26T05:38:23.687Z,4652.00
2019-04-26T05:39:23.667Z,4508.00
2019-04-26T05:40:23.676Z,4448.00
2019-04-26T05:41:23.674Z,4484.00
2019-04-26T05:42:23.635Z,4572.00
2019-04-26T05:43:23.629Z,4636.00
2019-04-26T05:44:23.613Z,4640.00
2019-04-26T05:45:23.606Z,4488.00
2019-04-26T05:46:23.648Z,4276.00
2019-04-26T05:47:23.583Z,4176.00
2019-04-26T05:48:23.572Z,4188.00
2019-04-26T05:49:23.572Z,4204.00
2019-04-26T05:50:23.554Z,4176.00
2019-04-26T05:51:23.539Z,4208.00
2019-04-26T05:52:23.558Z,4456.00
2019-04-26T05:53:23.519Z,4900.00
2019-04-26T05:54:23.555Z,5352.00
2019-04-26T05:55:23.498Z,5664.00
2019-04-26T05:56:23.489Z,6024.00
2019-04-26T05:57:23.566Z,6616.00
2019-04-26T05:58:23.471Z,7400.00
2019-04-26T05:59:23.457Z,8132.00
2019-04-26T06:00:23.446Z,8684.00
2019-04-26T06:01:23.435Z,9140.00
2019-04-26T06:02:23.463Z,9596.00
2019-04-26T06:03:23.422Z,10084.00
2019-04-26T06:04:23.406Z,10564.00
2019-04-26T06:05:23.395Z,10852.00
2019-04-26T06:06:23.393Z,10752.00
2019-04-26T06:07:23.405Z,10304.00
2019-04-26T06:08:31.010Z,9868.00
2019-04-26T06:09:24.350Z,9660.00
2019-04-26T06:10:23.342Z,9612.00
2019-04-26T06:11:23.335Z,9608.00
2019-04-26T06:12:23.351Z,9668.00
2019-04-26T06:13:23.320Z,9716.00
2019-04-26T06:14:23.303Z,9692.00
2019-04-26T06:15:23.288Z,9488.00
2019-04-26T06:16:23.280Z,9104.00
2019-04-26T06:17:23.291Z,8700.00
2019-04-26T06:18:23.265Z,8372.00
2019-04-26T06:19:23.250Z,8072.00
2019-04-26T06:20:23.619Z,7948.00
2019-04-26T06:21:23.225Z,8200.00
2019-04-26T06:22:23.235Z,8972.00
2019-04-26T06:23:23.203Z,9796.00
2019-04-26T06:24:23.189Z,10352.00
2019-04-26T06:25:23.200Z,10708.00
2019-04-26T06:26:23.169Z,10824.00
2019-04-26T06:27:23.181Z,10280.00
2019-04-26T06:28:23.151Z,9400.00
2019-04-26T06:29:23.136Z,8596.00
2019-04-26T06:30:23.125Z,8404.00
2019-04-26T06:31:23.116Z,8608.00
2019-04-26T06:32:23.151Z,8804.00
2019-04-26T06:33:23.091Z,8856.00
2019-04-26T06:34:23.085Z,8948.00
2019-04-26T06:35:23.072Z,9040.00
2019-04-26T06:36:23.084Z,8988.00
2019-04-26T06:37:23.079Z,9008.00
2019-04-26T06:38:23.035Z,8716.00
2019-04-26T06:39:23.023Z,8256.00
2019-04-26T06:40:23.011Z,8356.00
2019-04-26T06:41:23.008Z,8292.00
2019-04-26T06:42:23.018Z,7948.00
2019-04-26T06:43:22.980Z,7684.00
2019-04-26T06:44:22.976Z,7240.00
2019-04-26T06:45:22.956Z,7008.00
2019-04-26T06:46:22.947Z,7108.00
2019-04-26T06:47:22.961Z,7092.00
2019-04-26T06:48:22.925Z,7944.00
2019-04-26T06:49:22.919Z,9232.00
2019-04-26T06:50:22.905Z,10788.00
2019-04-26T06:51:24.972Z,11872.00
2019-04-26T06:52:22.913Z,12008.00
2019-04-26T06:53:22.876Z,11292.00
2019-04-26T06:54:22.857Z,11756.00
2019-04-26T06:55:22.848Z,12192.00
2019-04-26T06:56:22.838Z,13616.00
2019-04-26T06:57:22.857Z,16032.00
2019-04-26T06:58:22.815Z,18592.00
2019-04-26T06:59:22.810Z,20224.00
2019-04-26T07:00:22.791Z,19552.00
2019-04-26T07:01:22.784Z,19040.00
2019-04-26T07:02:22.800Z,17600.00
2019-04-26T07:03:22.761Z,16520.00
2019-04-26T07:04:22.755Z,15972.00
2019-04-26T07:05:22.742Z,15096.00
2019-04-26T07:06:34.519Z,14612.00
2019-04-26T07:07:23.746Z,14124.00
2019-04-26T07:08:22.702Z,15192.00
2019-04-26T07:09:22.698Z,15748.00
2019-04-26T07:10:22.688Z,16032.00
2019-04-26T07:11:22.675Z,15684.00
2019-04-26T07:12:22.717Z,15128.00
2019-04-26T07:13:22.654Z,14608.00
2019-04-26T07:14:22.643Z,14872.00
2019-04-26T07:15:28.702Z,14964.00
2019-04-26T07:16:23.624Z,14760.00
2019-04-26T07:17:22.608Z,14224.00
2019-04-26T07:18:22.639Z,13376.00
2019-04-26T07:19:22.591Z,12556.00
2019-04-26T07:20:22.578Z,11984.00
2019-04-26T07:21:22.567Z,11608.00
2019-04-26T07:22:34.587Z,11316.00
2019-04-26T07:23:23.574Z,10836.00
2019-04-26T07:24:22.535Z,10124.00
2019-04-26T07:25:22.524Z,9772.00
2019-04-26T07:26:22.514Z,9216.00
2019-04-26T07:27:22.505Z,8800.00
2019-04-26T07:28:22.620Z,8444.00
2019-04-26T07:29:22.487Z,8292.00
2019-04-26T07:30:22.542Z,8168.00
2019-04-26T07:31:22.464Z,8168.00
2019-04-26T07:32:22.455Z,8232.00
2019-04-26T07:33:22.472Z,8624.00
2019-04-26T07:34:22.433Z,8596.00
2019-04-26T07:35:22.415Z,8168.00
2019-04-26T07:36:22.407Z,7604.00
2019-04-26T07:37:22.404Z,7240.00
2019-04-26T07:38:22.414Z,7176.00
2019-04-26T07:39:22.380Z,7332.00
2019-04-26T07:40:22.365Z,7564.00
2019-04-26T07:41:22.357Z,7644.00
2019-04-26T07:42:22.343Z,7600.00
2019-04-26T07:43:22.359Z,7424.00
2019-04-26T07:44:22.323Z,7040.00
2019-04-26T07:45:22.308Z,6444.00
2019-04-26T07:46:22.300Z,5700.00
2019-04-26T07:47:22.289Z,5112.00
2019-04-26T07:48:22.305Z,4820.00
2019-04-26T07:49:22.265Z,4668.00
2019-04-26T07:50:22.251Z,4636.00
2019-04-26T07:51:22.245Z,4632.00
2019-04-26T07:52:22.231Z,4640.00
2019-04-26T07:53:22.251Z,4628.00
2019-04-26T07:54:22.209Z,4632.00
2019-04-26T07:55:22.208Z,4660.00
2019-04-26T07:56:22.191Z,4680.00
2019-04-26T07:57:22.176Z,4712.00
2019-04-26T07:58:22.193Z,4708.00
2019-04-26T07:59:22.155Z,4616.00
2019-04-26T08:00:22.156Z,4352.00
2019-04-26T08:01:22.131Z,4036.00
2019-04-26T08:02:22.123Z,3756.00
2019-04-26T08:03:22.139Z,3524.00
2019-04-26T08:04:22.117Z,3364.00
2019-04-26T08:05:22.084Z,3308.00
2019-04-26T08:06:22.083Z,3300.00
2019-04-26T08:07:22.074Z,3300.00
2019-04-26T08:08:22.093Z,3288.00
2019-04-26T08:09:26.963Z,3228.00
2019-04-26T08:10:23.035Z,3124.00
2019-04-26T08:11:22.015Z,3024.00
2019-04-26T08:12:22.018Z,3004.00
2019-04-26T08:13:22.015Z,3100.00
2019-04-26T08:14:22.023Z,3256.00
2019-04-26T08:15:24.878Z,3456.00
2019-04-26T08:16:21.982Z,3716.00
2019-04-26T08:17:21.969Z,4048.00
2019-04-26T08:18:21.955Z,4452.00
2019-04-26T08:19:21.982Z,4924.00
2019-04-26T08:20:21.935Z,5448.00
2019-04-26T08:21:21.920Z,5960.00
2019-04-26T08:22:28.323Z,6436.00
2019-04-26T08:23:38.456Z,6948.00
2019-04-26T08:24:22.937Z,7536.00
2019-04-26T08:25:21.984Z,8140.00
2019-04-26T08:26:22.004Z,8764.00
2019-04-26T08:27:24.002Z,9440.00
2019-04-26T08:28:21.962Z,10304.00
2019-04-26T08:29:22.019Z,11540.00
2019-04-26T08:30:22.910Z,13068.00
2019-04-26T08:31:24.421Z,14752.00
2019-04-26T08:32:21.806Z,16272.00
2019-04-26T08:33:21.795Z,17504.00
2019-04-26T08:34:28.807Z,18400.00
2019-04-26T08:35:22.845Z,19328.00
2019-04-26T08:36:23.231Z,20544.00
2019-04-26T08:37:21.759Z,21696.00
2019-04-26T08:38:22.749Z,22496.00
2019-04-26T08:39:23.400Z,22880.00
2019-04-26T08:40:30.117Z,22944.00
2019-04-26T08:41:22.712Z,22688.00
2019-04-26T08:42:23.827Z,22464.00
2019-04-26T08:43:22.601Z,22080.00
2019-04-26T08:44:21.727Z,21440.00
2019-04-26T08:45:21.823Z,20704.00
2019-04-26T08:46:21.662Z,19872.00
2019-04-26T08:47:26.090Z,19072.00
2019-04-26T08:48:22.407Z,18176.00
2019-04-26T08:49:22.651Z,17236.00
2019-04-26T08:50:22.235Z,16624.00
2019-04-26T08:51:22.094Z,16168.00
2019-04-26T08:52:21.593Z,15828.00
2019-04-26T08:53:21.580Z,15592.00
2019-04-26T08:54:21.612Z,15644.00
2019-04-26T08:55:21.561Z,16108.00
2019-04-26T08:56:21.545Z,16772.00
2019-04-26T08:57:21.532Z,17324.00
2019-04-26T08:58:21.535Z,17696.00
2019-04-26T08:59:21.542Z,17824.00
2019-04-26T09:00:21.499Z,17632.00
2019-04-26T09:01:21.497Z,16460.00
2019-04-26T09:02:21.502Z,13352.00
2019-04-26T09:03:21.474Z,10420.00
2019-04-26T09:04:21.498Z,11076.00
2019-04-26T09:05:21.449Z,11616.00
2019-04-26T09:06:21.441Z,9460.00
2019-04-26T09:07:21.425Z,7964.00
2019-04-26T09:08:21.416Z,7652.00
2019-04-26T09:09:21.432Z,8448.00
2019-04-26T09:10:21.398Z,10184.00
2019-04-26T09:11:25.817Z,12728.00
2019-04-26T09:12:23.530Z,14836.00
2019-04-26T09:13:21.360Z,16120.00
2019-04-26T09:14:21.389Z,17504.00
2019-04-26T09:15:21.346Z,19264.00
2019-04-26T09:16:21.333Z,20992.00
2019-04-26T09:17:21.322Z,22688.00
2019-04-26T09:18:21.308Z,24928.00
2019-04-26T09:19:21.330Z,27456.00
2019-04-26T09:20:28.657Z,30400.00
2019-04-26T09:21:22.279Z,33472.00
2019-04-26T09:22:22.674Z,36384.00
2019-04-26T09:23:21.253Z,38240.00
2019-04-26T09:24:24.968Z,38432.00
2019-04-26T09:25:22.856Z,36928.00
2019-04-26T09:26:21.257Z,34368.00
2019-04-26T09:27:22.467Z,31040.00
2019-04-26T09:28:21.212Z,28480.00
2019-04-26T09:29:21.215Z,27744.00
2019-04-26T09:30:33.318Z,26880.00
2019-04-26T09:31:22.169Z,24288.00
2019-04-26T09:32:24.212Z,22176.00
2019-04-26T09:33:22.247Z,20256.00
2019-04-26T09:34:21.309Z,16912.00
2019-04-26T09:35:21.124Z,12880.00
2019-04-26T09:36:21.117Z,9788.00
2019-04-26T09:37:21.109Z,10472.00
2019-04-26T09:38:21.097Z,12068.00
2019-04-26T09:39:21.127Z,13032.00
2019-04-26T09:40:22.665Z,13528.00
2019-04-26T09:41:21.072Z,13236.00
2019-04-26T09:42:21.054Z,12056.00
2019-04-26T09:43:21.045Z,13428.00
2019-04-26T09:44:21.037Z,15792.00
2019-04-26T09:45:21.044Z,20864.00
2019-04-26T09:46:21.013Z,18464.00
2019-04-26T09:47:20.997Z,14804.00
2019-04-26T09:48:20.988Z,20352.00
2019-04-26T09:49:20.983Z,25120.00
2019-04-26T09:50:21.269Z,27360.00
2019-04-26T09:51:20.959Z,29696.00
2019-04-26T09:52:20.951Z,34624.00
2019-04-26T09:53:20.936Z,38304.00
2019-04-26T09:54:20.928Z,36832.00
2019-04-26T09:55:20.944Z,34688.00
2019-04-26T09:56:20.905Z,38784.00
2019-04-26T09:57:20.891Z,36032.00
2019-04-26T09:58:20.917Z,35008.00
2019-04-26T09:59:20.879Z,34688.00
2019-04-26T10:00:20.893Z,37088.00
2019-04-26T10:01:24.175Z,38560.00
2019-04-26T10:02:21.842Z,35136.00
2019-04-26T10:03:20.830Z,29600.00
2019-04-26T10:04:20.817Z,28672.00
2019-04-26T10:05:22.426Z,30464.00
2019-04-26T10:06:20.800Z,33184.00
2019-04-26T10:07:20.794Z,37056.00
2019-04-26T10:08:20.777Z,39392.00
2019-04-26T10:09:22.669Z,39264.00
2019-04-26T10:10:23.126Z,40416.00
2019-04-26T10:11:20.756Z,41184.00
2019-04-26T10:12:20.732Z,40736.00
2019-04-26T10:13:20.721Z,40608.00
2019-04-26T10:14:20.714Z,40032.00
2019-04-26T10:15:22.553Z,38080.00
2019-04-26T10:16:21.722Z,35424.00
2019-04-26T10:17:20.685Z,36096.00
2019-04-26T10:18:24.366Z,34240.00
2019-04-26T10:19:21.664Z,31424.00
2019-04-26T10:20:20.652Z,31040.00
2019-04-26T10:21:20.673Z,30016.00
2019-04-26T10:22:20.635Z,29280.00
2019-04-26T10:23:20.624Z,28576.00
2019-04-26T10:24:20.610Z,29504.00
2019-04-26T10:25:20.603Z,30336.00
2019-04-26T10:26:23.272Z,30944.00
2019-04-26T10:27:21.577Z,29824.00
2019-04-26T10:28:20.570Z,27360.00
2019-04-26T10:29:21.693Z,27232.00
2019-04-26T10:30:20.543Z,30272.00
2019-04-26T10:31:20.564Z,34752.00
2019-04-26T10:32:21.598Z,39744.00
2019-04-26T10:33:21.515Z,40832.00
2019-04-26T10:34:20.508Z,39328.00
2019-04-26T10:35:21.712Z,37056.00
2019-04-26T10:36:20.510Z,34720.00
2019-04-26T10:37:20.473Z,35488.00
2019-04-26T10:38:23.827Z,37152.00
2019-04-26T10:39:20.459Z,38496.00
2019-04-26T10:40:20.443Z,36064.00
2019-04-26T10:41:20.460Z,33504.00
2019-04-26T10:42:20.422Z,33664.00
2019-04-26T10:43:20.414Z,34592.00
2019-04-26T10:44:20.399Z,34112.00
2019-04-26T10:45:20.385Z,29216.00
2019-04-26T10:46:20.401Z,22880.00
2019-04-26T10:47:20.368Z,20512.00
2019-04-26T10:48:23.060Z,22400.00
2019-04-26T10:49:24.322Z,24160.00
2019-04-26T10:50:20.345Z,24864.00
2019-04-26T10:51:20.359Z,25184.00
2019-04-26T10:52:20.318Z,25280.00
2019-04-26T10:53:20.303Z,24800.00
2019-04-26T10:54:20.304Z,23968.00
2019-04-26T10:55:20.296Z,23328.00
2019-04-26T10:56:24.093Z,22304.00
2019-04-26T10:57:20.301Z,21664.00
2019-04-26T10:58:20.255Z,22784.00
2019-04-26T10:59:22.675Z,25248.00
2019-04-26T11:00:20.231Z,27584.00
2019-04-26T11:01:20.223Z,29248.00
2019-04-26T11:02:20.235Z,31584.00
2019-04-26T11:03:20.201Z,34720.00
2019-04-26T11:04:20.195Z,35616.00
2019-04-26T11:05:20.177Z,34112.00
2019-04-26T11:06:20.171Z,31328.00
2019-04-26T11:07:20.181Z,28160.00
2019-04-26T11:08:20.143Z,24960.00
2019-04-26T11:09:20.135Z,22592.00
2019-04-26T11:10:20.124Z,21024.00
2019-04-26T11:11:20.115Z,20192.00
2019-04-26T11:12:20.129Z,19808.00
2019-04-26T11:13:20.098Z,19584.00
2019-04-26T11:14:22.603Z,19456.00
2019-04-26T11:15:20.098Z,19392.00
2019-04-26T11:16:20.072Z,19232.00
2019-04-26T11:17:20.047Z,18944.00
2019-04-26T11:18:27.269Z,18528.00
2019-04-26T11:19:21.085Z,18112.00
2019-04-26T11:20:20.048Z,17920.00
2019-04-26T11:21:20.830Z,18176.00
2019-04-26T11:22:29.013Z,18912.00
2019-04-26T11:23:20.983Z,20032.00
2019-04-26T11:24:20.947Z,21472.00
2019-04-26T11:25:19.992Z,23232.00
2019-04-26T11:26:19.968Z,24832.00
2019-04-26T11:27:19.978Z,25376.00
2019-04-26T11:28:21.273Z,24832.00
2019-04-26T11:29:19.930Z,23712.00
2019-04-26T11:30:21.137Z,23040.00
2019-04-26T11:31:23.359Z,22752.00
2019-04-26T11:32:20.917Z,22912.00
2019-04-26T11:33:19.898Z,23200.00
2019-04-26T11:34:23.568Z,24384.00
2019-04-26T11:35:20.856Z,25632.00
2019-04-26T11:36:19.852Z,26272.00
2019-04-26T11:37:19.917Z,26080.00
2019-04-26T11:38:21.723Z,26144.00
2019-04-26T11:39:19.821Z,26848.00
2019-04-26T11:40:19.805Z,27232.00
2019-04-26T11:41:19.881Z,28576.00
2019-04-26T11:42:19.786Z,28960.00
2019-04-26T11:43:21.083Z,27840.00
2019-04-26T11:44:23.378Z,30848.00
2019-04-26T11:45:20.752Z,32608.00
2019-04-26T11:46:21.766Z,31360.00
2019-04-26T11:47:20.732Z,29696.00
2019-04-26T11:48:19.746Z,30048.00
2019-04-26T11:49:19.705Z,31488.00
2019-04-26T11:50:19.732Z,32224.00
2019-04-26T11:51:19.683Z,33568.00
2019-04-26T11:52:19.678Z,34400.00
2019-04-26T11:53:19.694Z,34752.00
2019-04-26T11:54:20.789Z,34464.00
2019-04-26T11:55:19.660Z,33216.00
2019-04-26T11:56:19.647Z,34400.00
2019-04-26T11:57:19.623Z,33312.00
2019-04-26T11:58:22.645Z,33280.00
2019-04-26T11:59:19.607Z,37184.00
2019-04-26T12:00:19.595Z,37248.00
2019-04-26T12:01:19.585Z,35264.00
2019-04-26T12:02:19.573Z,34560.00
2019-04-26T12:03:21.124Z,30016.00
2019-04-26T12:04:19.554Z,27776.00
2019-04-26T12:05:19.551Z,24096.00
2019-04-26T12:06:21.348Z,25568.00
2019-04-26T12:07:19.533Z,27776.00
2019-04-26T12:08:19.541Z,30688.00
2019-04-26T12:09:19.505Z,35200.00
2019-04-26T12:10:19.491Z,37536.00
2019-04-26T12:11:25.943Z,36384.00
2019-04-26T12:12:20.467Z,34208.00
2019-04-26T12:13:21.315Z,33056.00
2019-04-26T12:14:20.881Z,30848.00
2019-04-26T12:15:29.691Z,28352.00
2019-04-26T12:16:20.583Z,27872.00
2019-04-26T12:17:19.416Z,27904.00
2019-04-26T12:18:19.451Z,27200.00
2019-04-26T12:19:19.845Z,26336.00
2019-04-26T12:20:22.464Z,25568.00